createdAt,value
2022-07-29T00:00:41.147Z,2.40
2022-07-29T00:01:41.148Z,2.50
2022-07-29T00:02:41.173Z,2.70
2022-07-29T00:03:41.149Z,2.40
2022-07-29T00:04:41.235Z,2.40
2022-07-29T00:05:41.123Z,2.70
2022-07-29T00:06:41.121Z,2.60
2022-07-29T00:07:41.121Z,2.70
2022-07-29T00:08:41.108Z,2.80
2022-07-29T00:09:41.940Z,2.80
2022-07-29T00:10:41.102Z,2.50
2022-07-29T00:11:41.096Z,2.70
2022-07-29T00:12:41.087Z,2.90
2022-07-29T00:13:41.094Z,2.80
2022-07-29T00:14:41.082Z,2.70
2022-07-29T00:15:41.075Z,2.60
2022-07-29T00:16:41.150Z,2.50
2022-07-29T00:17:41.067Z,2.80
2022-07-29T00:18:41.063Z,2.60
2022-07-29T00:19:44.945Z,2.70
2022-07-29T00:20:41.051Z,2.80
2022-07-29T00:21:41.047Z,2.90
2022-07-29T00:22:41.045Z,2.70
2022-07-29T00:23:41.037Z,2.80
2022-07-29T00:24:41.033Z,2.90
2022-07-29T00:25:41.029Z,2.70
2022-07-29T00:26:41.029Z,2.80
2022-07-29T00:27:41.018Z,2.70
2022-07-29T00:28:41.009Z,2.90
2022-07-29T00:29:41.013Z,3.00
2022-07-29T00:30:41.004Z,2.70
2022-07-29T00:31:41.015Z,2.70
2022-07-29T00:32:40.995Z,3.00
2022-07-29T00:33:40.991Z,2.70
2022-07-29T00:34:40.983Z,2.90
2022-07-29T00:35:40.979Z,2.90
2022-07-29T00:36:40.975Z,2.80
2022-07-29T00:37:40.970Z,3.10
2022-07-29T00:38:40.962Z,3.00
2022-07-29T00:39:40.960Z,3.00
2022-07-29T00:40:43.910Z,3.00
2022-07-29T00:41:40.952Z,3.40
2022-07-29T00:42:40.944Z,2.90
2022-07-29T00:43:40.943Z,3.00
2022-07-29T00:44:40.938Z,3.10
2022-07-29T00:45:40.933Z,3.10
2022-07-29T00:46:40.991Z,2.90
2022-07-29T00:47:40.920Z,3.00
2022-07-29T00:48:40.966Z,3.00
2022-07-29T00:49:40.910Z,2.90
2022-07-29T00:50:40.913Z,3.00
2022-07-29T00:51:40.906Z,2.90
2022-07-29T00:52:40.899Z,2.90
2022-07-29T00:53:40.891Z,3.10
2022-07-29T00:54:44.803Z,2.80
2022-07-29T00:55:40.882Z,2.90
2022-07-29T00:56:40.877Z,2.90
2022-07-29T00:57:40.872Z,3.10
2022-07-29T00:58:40.865Z,2.80
2022-07-29T00:59:40.860Z,2.80
2022-07-29T01:00:40.891Z,3.00
2022-07-29T01:01:40.894Z,3.00
2022-07-29T01:02:40.850Z,3.00
2022-07-29T01:03:40.841Z,2.90
2022-07-29T01:04:40.837Z,2.90
2022-07-29T01:05:49.980Z,3.00
2022-07-29T01:06:40.827Z,3.00
2022-07-29T01:07:40.820Z,3.00
2022-07-29T01:08:40.817Z,3.40
2022-07-29T01:09:45.816Z,3.20
2022-07-29T01:10:40.810Z,3.00
2022-07-29T01:11:40.809Z,3.10
2022-07-29T01:12:40.798Z,3.00
2022-07-29T01:13:40.797Z,2.90
2022-07-29T01:14:40.788Z,2.90
2022-07-29T01:15:40.789Z,2.80
2022-07-29T01:16:40.834Z,2.90
2022-07-29T01:17:40.775Z,2.80
2022-07-29T01:18:40.767Z,3.20
2022-07-29T01:19:40.761Z,2.80
2022-07-29T01:20:40.757Z,3.00
2022-07-29T01:21:40.752Z,3.00
2022-07-29T01:22:40.748Z,3.00
2022-07-29T01:23:40.742Z,2.80
2022-07-29T01:24:40.739Z,3.00
2022-07-29T01:25:40.744Z,2.90
2022-07-29T01:28:23.443Z,2.90
2022-07-29T01:29:23.423Z,3.00
2022-07-29T01:31:27.434Z,2.90
2022-07-29T01:32:28.863Z,3.00
2022-07-29T01:33:27.380Z,3.30
2022-07-29T01:34:27.379Z,3.00
2022-07-29T01:35:27.371Z,3.10
2022-07-29T01:36:27.365Z,3.00
2022-07-29T01:37:27.362Z,3.00
2022-07-29T01:38:27.352Z,3.00
2022-07-29T01:39:27.349Z,2.90
2022-07-29T01:40:27.344Z,3.00
2022-07-29T01:41:27.341Z,2.90
2022-07-29T01:42:27.334Z,3.00
2022-07-29T01:43:27.332Z,2.90
2022-07-29T01:44:27.322Z,2.80
2022-07-29T01:45:27.319Z,2.90
2022-07-29T01:46:27.347Z,3.10
2022-07-29T01:47:27.309Z,3.00
2022-07-29T01:48:27.309Z,3.10
2022-07-29T01:49:27.333Z,2.80
2022-07-29T01:50:27.294Z,2.90
2022-07-29T01:51:27.287Z,3.00
2022-07-29T01:52:27.284Z,2.70
2022-07-29T01:53:27.308Z,2.70
2022-07-29T01:54:27.272Z,2.90
2022-07-29T01:55:27.269Z,2.70
2022-07-29T01:56:27.261Z,2.80
2022-07-29T01:57:27.257Z,2.60
2022-07-29T01:58:27.249Z,2.80
2022-07-29T01:59:27.250Z,2.90
2022-07-29T02:00:27.262Z,2.40
2022-07-29T02:01:27.308Z,2.70
2022-07-29T02:02:27.235Z,2.60
2022-07-29T02:03:27.224Z,2.70
2022-07-29T02:04:29.715Z,2.70
2022-07-29T02:05:27.265Z,2.50
2022-07-29T02:06:27.214Z,2.60
2022-07-29T02:07:27.208Z,2.50
2022-07-29T02:08:27.207Z,2.70
2022-07-29T02:09:27.202Z,2.90
2022-07-29T02:10:27.193Z,2.60
2022-07-29T02:11:27.191Z,2.60
2022-07-29T02:12:27.176Z,2.60
2022-07-29T02:13:27.174Z,2.40
2022-07-29T02:14:27.164Z,2.70
2022-07-29T02:15:27.164Z,2.50
2022-07-29T02:16:27.257Z,2.50
2022-07-29T02:17:27.149Z,2.70
2022-07-29T02:18:27.152Z,2.70
2022-07-29T02:19:27.138Z,2.80
2022-07-29T02:20:27.134Z,2.50
2022-07-29T02:21:27.128Z,2.50
2022-07-29T02:22:27.121Z,2.60
2022-07-29T02:23:27.135Z,2.70
2022-07-29T02:24:27.114Z,2.50
2022-07-29T02:25:36.998Z,2.60
2022-07-29T02:26:27.102Z,2.70
2022-07-29T02:27:27.097Z,2.70
2022-07-29T02:28:27.090Z,2.40
2022-07-29T02:29:27.086Z,2.60
2022-07-29T02:30:27.079Z,2.40
2022-07-29T02:31:27.192Z,2.50
2022-07-29T02:32:27.070Z,2.30
2022-07-29T02:33:27.088Z,2.80
2022-07-29T02:34:27.059Z,2.50
2022-07-29T02:35:27.057Z,2.70
2022-07-29T02:36:27.049Z,2.50
2022-07-29T02:37:27.042Z,2.50
2022-07-29T02:38:27.037Z,2.60
2022-07-29T02:39:27.058Z,2.70
2022-07-29T02:40:27.024Z,2.70
2022-07-29T02:41:27.026Z,2.70
2022-07-29T02:42:27.015Z,2.50
2022-07-29T02:43:27.011Z,2.80
2022-07-29T02:44:30.073Z,2.60
2022-07-29T02:45:27.000Z,2.70
2022-07-29T02:46:28.484Z,2.60
2022-07-29T02:47:26.987Z,2.50
2022-07-29T02:48:26.982Z,2.50
2022-07-29T02:49:27.020Z,2.70
2022-07-29T02:50:26.972Z,2.70
2022-07-29T02:51:41.509Z,2.70
2022-07-29T02:52:26.959Z,2.40
2022-07-29T02:53:26.955Z,2.40
2022-07-29T02:54:26.950Z,2.40
2022-07-29T02:55:26.945Z,2.60
2022-07-29T02:56:26.941Z,2.40
2022-07-29T02:57:26.944Z,2.40
2022-07-29T02:58:26.930Z,2.50
2022-07-29T02:59:26.975Z,2.50
2022-07-29T03:00:26.914Z,2.50
2022-07-29T03:01:26.955Z,2.60
2022-07-29T03:02:26.905Z,2.60
2022-07-29T03:03:26.900Z,2.60
2022-07-29T03:04:26.962Z,2.40
2022-07-29T03:05:26.888Z,2.60
2022-07-29T03:06:28.515Z,2.50
2022-07-29T03:07:26.877Z,2.70
2022-07-29T03:08:26.871Z,2.50
2022-07-29T03:09:26.868Z,2.40
2022-07-29T03:10:26.860Z,2.30
2022-07-29T03:11:39.021Z,2.40
2022-07-29T03:12:26.849Z,2.30
2022-07-29T03:13:26.846Z,2.40
2022-07-29T03:14:26.839Z,2.40
2022-07-29T03:15:26.836Z,2.50
2022-07-29T03:16:26.858Z,2.20
2022-07-29T03:17:26.828Z,2.40
2022-07-29T03:18:26.821Z,2.40
2022-07-29T03:19:26.812Z,2.20
2022-07-29T03:20:26.806Z,2.40
2022-07-29T03:21:26.799Z,2.30
2022-07-29T03:22:26.794Z,2.30
2022-07-29T03:23:26.789Z,2.00
2022-07-29T03:24:26.785Z,2.10
2022-07-29T03:25:26.776Z,2.30
2022-07-29T03:26:26.771Z,2.20
2022-07-29T03:27:26.766Z,2.30
2022-07-29T03:28:27.005Z,2.40
2022-07-29T03:29:33.910Z,2.30
2022-07-29T03:30:26.753Z,2.30
2022-07-29T03:31:26.819Z,2.20
2022-07-29T03:32:26.760Z,2.20
2022-07-29T03:33:26.735Z,2.10
2022-07-29T03:34:26.725Z,2.30
2022-07-29T03:35:26.722Z,2.20
2022-07-29T03:36:26.717Z,2.20
2022-07-29T03:37:26.709Z,2.10
2022-07-29T03:38:26.708Z,2.10
2022-07-29T03:39:26.697Z,2.30
2022-07-29T03:40:26.694Z,2.30
2022-07-29T03:41:26.691Z,2.40
2022-07-29T03:42:29.899Z,2.10
2022-07-29T03:43:26.676Z,2.20
2022-07-29T03:44:26.672Z,2.30
2022-07-29T03:45:26.667Z,2.40
2022-07-29T03:46:26.701Z,2.40
2022-07-29T03:47:27.020Z,2.30
2022-07-29T03:48:26.648Z,2.10
2022-07-29T03:49:26.675Z,2.30
2022-07-29T03:50:26.634Z,2.10
2022-07-29T03:51:33.816Z,2.10
2022-07-29T03:52:26.623Z,2.30
2022-07-29T03:53:26.618Z,2.30
2022-07-29T03:54:26.615Z,2.30
2022-07-29T03:55:26.610Z,2.20
2022-07-29T03:56:26.603Z,2.30
2022-07-29T03:57:26.616Z,2.20
2022-07-29T03:58:26.589Z,2.20
2022-07-29T03:59:26.583Z,2.40
2022-07-29T04:00:26.593Z,2.30
2022-07-29T04:01:26.685Z,2.20
2022-07-29T04:02:30.528Z,2.10
2022-07-29T04:03:26.634Z,2.10
2022-07-29T04:04:26.557Z,2.20
2022-07-29T04:05:26.550Z,2.20
2022-07-29T04:06:26.544Z,2.30
2022-07-29T04:07:26.540Z,2.30
2022-07-29T04:08:26.533Z,2.20
2022-07-29T04:09:26.528Z,2.00
2022-07-29T04:10:32.031Z,2.00
2022-07-29T04:11:26.513Z,2.40
2022-07-29T04:12:26.507Z,2.00
2022-07-29T04:13:26.505Z,2.10
2022-07-29T04:14:26.501Z,2.20
2022-07-29T04:15:26.493Z,2.20
2022-07-29T04:16:26.522Z,2.30
2022-07-29T04:17:26.484Z,2.30
2022-07-29T04:18:26.480Z,2.40
2022-07-29T04:19:26.471Z,2.30
2022-07-29T04:20:26.465Z,2.20
2022-07-29T04:21:26.459Z,2.00
2022-07-29T04:22:26.452Z,2.20
2022-07-29T04:23:26.452Z,2.10
2022-07-29T04:24:26.447Z,2.20
2022-07-29T04:25:26.438Z,2.10
2022-07-29T04:26:26.431Z,2.20
2022-07-29T04:27:26.429Z,2.10
2022-07-29T04:28:26.426Z,2.20
2022-07-29T04:29:26.417Z,2.00
2022-07-29T04:30:26.409Z,2.20
2022-07-29T04:31:26.451Z,2.50
2022-07-29T04:32:26.398Z,2.20
2022-07-29T04:33:26.396Z,2.30
2022-07-29T04:34:28.070Z,2.40
2022-07-29T04:35:26.382Z,2.20
2022-07-29T04:36:29.347Z,2.30
2022-07-29T04:37:26.370Z,2.30
2022-07-29T04:38:26.368Z,2.20
2022-07-29T04:39:27.226Z,2.10
2022-07-29T04:40:26.359Z,2.00
2022-07-29T04:41:33.175Z,2.10
2022-07-29T04:42:27.503Z,2.20
2022-07-29T04:43:26.346Z,2.00
2022-07-29T04:44:28.457Z,2.20
2022-07-29T04:45:26.327Z,2.10
2022-07-29T04:46:26.378Z,2.10
2022-07-29T04:47:26.319Z,1.90
2022-07-29T04:48:28.658Z,2.20
2022-07-29T04:49:26.347Z,2.00
2022-07-29T04:50:26.302Z,2.20
2022-07-29T04:51:26.295Z,2.60
2022-07-29T04:52:26.293Z,2.20
2022-07-29T04:53:26.283Z,2.30
2022-07-29T04:54:26.281Z,2.30
2022-07-29T04:55:26.273Z,2.40
2022-07-29T04:56:26.266Z,2.10
2022-07-29T04:57:26.263Z,1.90
2022-07-29T04:58:26.256Z,2.00
2022-07-29T04:59:26.255Z,2.10
2022-07-29T05:00:33.054Z,2.40
2022-07-29T05:01:26.333Z,2.20
2022-07-29T05:02:26.301Z,2.10
2022-07-29T05:03:26.233Z,2.40
2022-07-29T05:04:26.227Z,2.20
2022-07-29T05:05:26.223Z,2.10
2022-07-29T05:06:26.215Z,2.00
2022-07-29T05:07:26.213Z,2.20
2022-07-29T05:08:26.208Z,2.20
2022-07-29T05:09:26.201Z,2.20
2022-07-29T05:10:26.195Z,2.50
2022-07-29T05:11:30.215Z,2.30
2022-07-29T05:12:26.190Z,2.70
2022-07-29T05:13:26.192Z,3.70
2022-07-29T05:14:26.188Z,3.80
2022-07-29T05:15:26.218Z,5.10
2022-07-29T05:16:26.215Z,6.40
2022-07-29T05:17:26.164Z,7.20
2022-07-29T05:18:26.369Z,7.70
2022-07-29T05:19:26.153Z,999.90
2022-07-29T05:20:26.146Z,999.90
2022-07-29T05:21:26.140Z,999.90
2022-07-29T05:22:26.179Z,6.10
2022-07-29T05:23:26.136Z,3.00
2022-07-29T05:24:26.129Z,2.40
2022-07-29T05:25:44.314Z,2.70
2022-07-29T05:26:26.118Z,2.40
2022-07-29T05:27:26.116Z,2.10
2022-07-29T05:28:26.111Z,2.40
2022-07-29T05:29:44.566Z,2.40
2022-07-29T05:30:26.101Z,2.10
2022-07-29T05:31:26.147Z,2.30
2022-07-29T05:32:26.095Z,2.40
2022-07-29T05:33:34.711Z,2.30
2022-07-29T05:34:26.130Z,2.30
2022-07-29T05:35:26.084Z,2.30
2022-07-29T05:36:26.080Z,2.40
2022-07-29T05:37:26.074Z,2.20
2022-07-29T05:38:26.068Z,2.30
2022-07-29T05:39:47.261Z,2.20
2022-07-29T05:40:26.063Z,2.30
2022-07-29T05:41:26.057Z,2.10
2022-07-29T05:42:26.053Z,2.40
2022-07-29T05:43:26.049Z,2.10
2022-07-29T05:44:26.045Z,2.30
2022-07-29T05:45:26.039Z,2.10
2022-07-29T05:46:26.069Z,2.10
2022-07-29T05:47:26.034Z,2.10
2022-07-29T05:48:26.032Z,1.80
2022-07-29T05:49:27.267Z,2.20
2022-07-29T05:50:26.018Z,2.30
2022-07-29T05:51:26.015Z,2.20
2022-07-29T05:52:26.012Z,2.30
2022-07-29T05:53:26.007Z,2.30
2022-07-29T05:54:25.998Z,2.10
2022-07-29T05:55:25.996Z,2.20
2022-07-29T05:56:25.995Z,2.10
2022-07-29T05:57:25.991Z,2.10
2022-07-29T05:58:25.984Z,2.20
2022-07-29T05:59:30.074Z,2.10
2022-07-29T06:00:25.976Z,2.30
2022-07-29T06:01:26.090Z,2.30
2022-07-29T06:02:25.972Z,2.10
2022-07-29T06:03:25.965Z,2.40
2022-07-29T06:04:25.988Z,2.20
2022-07-29T06:05:25.959Z,2.30
2022-07-29T06:06:25.951Z,2.20
2022-07-29T06:07:25.945Z,2.30
2022-07-29T06:08:25.941Z,2.20
2022-07-29T06:09:25.940Z,2.40
2022-07-29T06:10:27.095Z,2.60
2022-07-29T06:11:25.930Z,2.50
2022-07-29T06:12:25.925Z,2.80
2022-07-29T06:13:25.926Z,2.60
2022-07-29T06:14:25.917Z,2.50
2022-07-29T06:15:25.918Z,2.40
2022-07-29T06:16:30.003Z,2.30
2022-07-29T06:17:25.908Z,2.30
2022-07-29T06:18:25.921Z,2.30
2022-07-29T06:19:25.908Z,2.40
2022-07-29T06:20:27.027Z,2.30
2022-07-29T06:21:25.897Z,2.30
2022-07-29T06:22:25.887Z,2.40
2022-07-29T06:23:25.884Z,2.60
2022-07-29T06:24:25.881Z,2.60
2022-07-29T06:25:25.878Z,2.40
2022-07-29T06:26:30.437Z,2.50
2022-07-29T06:27:25.913Z,2.40
2022-07-29T06:28:25.872Z,2.50
2022-07-29T06:29:25.866Z,2.50
2022-07-29T06:30:25.936Z,2.40
2022-07-29T06:31:25.927Z,2.40
2022-07-29T06:32:27.336Z,2.80
2022-07-29T06:33:25.856Z,2.90
2022-07-29T06:34:25.855Z,2.50
2022-07-29T06:35:41.290Z,2.50
2022-07-29T06:36:25.843Z,2.30
2022-07-29T06:37:25.841Z,2.30
2022-07-29T06:38:30.950Z,2.30
2022-07-29T06:39:25.835Z,2.70
2022-07-29T06:40:25.854Z,2.40
2022-07-29T06:41:25.823Z,2.30
2022-07-29T06:42:25.846Z,2.30
2022-07-29T06:43:26.350Z,2.20
2022-07-29T06:44:25.813Z,2.40
2022-07-29T06:45:25.818Z,2.20
2022-07-29T06:46:25.849Z,2.20
2022-07-29T06:47:25.807Z,2.10
2022-07-29T06:48:25.807Z,2.10
2022-07-29T06:49:25.821Z,2.30
2022-07-29T06:50:25.839Z,2.10
2022-07-29T06:51:25.789Z,2.30
2022-07-29T06:52:25.790Z,2.30
2022-07-29T06:53:25.791Z,1.90
2022-07-29T06:54:25.784Z,2.20
2022-07-29T06:55:25.787Z,2.20
2022-07-29T06:56:25.778Z,2.20
2022-07-29T06:57:25.776Z,2.10
2022-07-29T06:58:25.773Z,1.90
2022-07-29T06:59:33.451Z,2.40
2022-07-29T07:00:25.845Z,2.20
2022-07-29T07:01:25.844Z,2.20
2022-07-29T07:02:25.807Z,2.20
2022-07-29T07:03:25.762Z,2.80
2022-07-29T07:04:25.756Z,2.60
2022-07-29T07:05:25.753Z,2.50
2022-07-29T07:06:25.752Z,2.20
2022-07-29T07:07:25.749Z,2.40
2022-07-29T07:08:25.747Z,2.30
2022-07-29T07:09:25.749Z,2.50
2022-07-29T07:10:25.782Z,2.30
2022-07-29T07:11:25.741Z,2.20
2022-07-29T07:12:25.733Z,2.40
2022-07-29T07:13:25.732Z,2.60
2022-07-29T07:14:25.728Z,2.20
2022-07-29T07:15:39.618Z,2.40
2022-07-29T07:16:25.771Z,2.50
2022-07-29T07:17:25.723Z,2.40
2022-07-29T07:18:25.719Z,2.80
2022-07-29T07:19:25.723Z,2.60
2022-07-29T07:20:25.716Z,2.70
2022-07-29T07:21:25.716Z,2.70
2022-07-29T07:22:25.722Z,2.70
2022-07-29T07:23:25.716Z,2.70
2022-07-29T07:24:25.728Z,2.70
2022-07-29T07:25:25.706Z,3.00
2022-07-29T07:26:25.706Z,2.50
2022-07-29T07:27:25.706Z,3.40
2022-07-29T07:28:25.705Z,3.40
2022-07-29T07:29:25.704Z,3.20
2022-07-29T07:30:25.706Z,3.00
2022-07-29T07:31:25.785Z,2.90
2022-07-29T07:33:25.702Z,2.90
2022-07-29T07:34:28.394Z,2.90
2022-07-29T07:35:25.705Z,3.00
2022-07-29T07:36:25.699Z,3.10
2022-07-29T07:37:25.697Z,3.10
2022-07-29T07:38:25.707Z,3.20
2022-07-29T07:39:25.701Z,3.00
2022-07-29T07:40:25.703Z,3.30
2022-07-29T07:41:25.702Z,4.10
2022-07-29T07:42:25.710Z,4.00
2022-07-29T07:43:25.700Z,3.10
2022-07-29T07:44:25.703Z,3.30
2022-07-29T07:45:25.753Z,3.60
2022-07-29T07:46:25.751Z,3.50
2022-07-29T07:47:25.702Z,4.40
2022-07-29T07:48:25.703Z,3.90
2022-07-29T07:49:25.734Z,3.60
2022-07-29T07:50:25.707Z,2.90
2022-07-29T07:51:25.703Z,3.30
2022-07-29T07:52:25.707Z,3.70
2022-07-29T07:53:25.715Z,3.50
2022-07-29T07:54:25.711Z,3.70
2022-07-29T07:55:25.710Z,3.40
2022-07-29T07:56:25.714Z,3.70
2022-07-29T07:57:25.715Z,3.40
2022-07-29T07:58:25.717Z,3.70
2022-07-29T07:59:25.717Z,4.10
2022-07-29T08:00:25.722Z,4.10
2022-07-29T08:01:25.901Z,3.70
2022-07-29T08:02:25.772Z,3.60
2022-07-29T08:03:25.723Z,3.80
2022-07-29T08:04:28.737Z,3.30
2022-07-29T08:05:25.730Z,3.00
2022-07-29T08:06:25.735Z,2.70
2022-07-29T08:07:25.733Z,2.90
2022-07-29T08:08:25.739Z,2.90
2022-07-29T08:09:30.064Z,2.80
2022-07-29T08:10:25.746Z,3.10
2022-07-29T08:11:25.744Z,2.80
2022-07-29T08:12:25.748Z,3.00
2022-07-29T08:13:25.749Z,3.20
2022-07-29T08:14:25.752Z,3.10
2022-07-29T08:15:25.758Z,3.10
2022-07-29T08:16:25.845Z,2.70
2022-07-29T08:22:25.775Z,3.10
2022-07-29T08:23:25.776Z,3.00
2022-07-29T08:24:25.776Z,4.10
2022-07-29T08:25:25.778Z,3.60
2022-07-29T08:26:25.778Z,3.60
2022-07-29T08:27:43.726Z,3.20
2022-07-29T08:28:26.176Z,3.70
2022-07-29T08:29:25.786Z,3.40
2022-07-29T08:30:25.788Z,3.80
2022-07-29T08:31:25.882Z,3.10
2022-07-29T08:32:50.873Z,3.40
2022-07-29T08:33:25.793Z,3.60
2022-07-29T08:34:27.756Z,3.70
2022-07-29T08:35:25.795Z,3.60
2022-07-29T08:36:25.796Z,3.40
2022-07-29T08:37:25.798Z,3.50
2022-07-29T08:38:25.798Z,3.70
2022-07-29T08:39:25.801Z,3.60
2022-07-29T08:40:30.490Z,3.80
2022-07-29T08:41:25.801Z,3.40
2022-07-29T08:42:25.825Z,2.40
2022-07-29T08:43:25.804Z,1.80
2022-07-29T08:44:30.448Z,1.60
2022-07-29T08:45:25.894Z,1.50
2022-07-29T08:46:25.809Z,1.50
2022-07-29T08:47:25.806Z,1.50
2022-07-29T08:48:25.871Z,1.50
2022-07-29T08:49:25.874Z,1.50
2022-07-29T08:50:25.809Z,1.40
2022-07-29T08:51:25.811Z,1.40
2022-07-29T08:52:25.813Z,1.40
2022-07-29T08:53:25.812Z,1.40
2022-07-29T08:54:25.812Z,1.30
2022-07-29T08:55:25.815Z,1.40
2022-07-29T08:56:25.817Z,1.40
2022-07-29T08:57:25.821Z,1.30
2022-07-29T08:58:26.005Z,1.30
2022-07-29T08:59:25.820Z,1.40
2022-07-29T09:00:25.822Z,1.40
2022-07-29T09:01:36.353Z,1.20
2022-07-29T09:02:25.825Z,1.30
2022-07-29T09:03:25.866Z,1.40
2022-07-29T09:04:25.828Z,1.40
2022-07-29T09:05:25.834Z,1.50
2022-07-29T09:06:25.831Z,1.30
2022-07-29T09:07:25.833Z,1.30
2022-07-29T09:08:25.836Z,1.40
2022-07-29T09:09:25.833Z,1.30
2022-07-29T09:10:25.837Z,1.50
2022-07-29T09:11:25.839Z,1.30
2022-07-29T09:12:29.077Z,1.30
2022-07-29T09:13:25.842Z,1.60
2022-07-29T09:14:25.844Z,1.90
2022-07-29T09:15:25.844Z,2.00
2022-07-29T09:16:50.985Z,2.30
2022-07-29T09:17:25.870Z,2.40
2022-07-29T09:18:30.963Z,2.10
2022-07-29T09:19:25.850Z,2.00
2022-07-29T09:20:25.850Z,2.20
2022-07-29T09:21:25.850Z,2.40
2022-07-29T09:22:25.853Z,1.80
2022-07-29T09:23:25.855Z,1.60
2022-07-29T09:24:25.855Z,1.50
2022-07-29T09:25:25.853Z,1.40
2022-07-29T09:26:25.856Z,1.30
2022-07-29T09:27:25.856Z,1.30
2022-07-29T09:28:25.867Z,1.40
2022-07-29T09:29:25.857Z,1.50
2022-07-29T09:30:31.536Z,1.50
2022-07-29T09:31:25.969Z,1.50
2022-07-29T09:32:25.864Z,1.40
2022-07-29T09:33:25.861Z,1.30
2022-07-29T09:34:25.861Z,1.30
2022-07-29T09:35:25.865Z,1.50
2022-07-29T09:36:25.868Z,1.30
2022-07-29T09:37:25.864Z,1.30
2022-07-29T09:38:25.873Z,1.40
2022-07-29T09:39:25.895Z,1.40
2022-07-29T09:40:25.869Z,1.40
2022-07-29T09:41:25.872Z,1.10
2022-07-29T09:42:25.869Z,1.40
2022-07-29T09:43:25.869Z,1.20
2022-07-29T09:44:25.871Z,1.20
2022-07-29T09:45:25.870Z,1.50
2022-07-29T09:46:25.904Z,1.30
2022-07-29T09:47:25.875Z,1.40
2022-07-29T09:48:25.878Z,1.20
2022-07-29T09:49:25.924Z,1.20
2022-07-29T09:50:25.874Z,1.20
2022-07-29T09:51:37.841Z,1.30
2022-07-29T09:52:25.876Z,1.20
2022-07-29T09:53:25.878Z,1.40
2022-07-29T09:54:25.879Z,1.30
2022-07-29T09:55:25.881Z,1.20
2022-07-29T09:56:25.883Z,1.30
2022-07-29T09:57:30.342Z,1.30
2022-07-29T09:58:25.894Z,1.20
2022-07-29T09:59:25.889Z,1.20
2022-07-29T10:00:25.884Z,1.30
2022-07-29T10:01:25.912Z,1.40
2022-07-29T10:02:25.889Z,1.30
2022-07-29T10:03:26.041Z,1.30
2022-07-29T10:04:25.892Z,1.30
2022-07-29T10:05:25.892Z,1.20
2022-07-29T10:06:25.894Z,1.10
2022-07-29T10:07:25.898Z,1.40
2022-07-29T10:08:25.896Z,1.30
2022-07-29T10:09:25.900Z,1.40
2022-07-29T10:10:25.902Z,1.30
2022-07-29T10:11:25.904Z,1.30
2022-07-29T10:12:25.900Z,1.20
2022-07-29T10:13:25.905Z,1.30
2022-07-29T10:14:25.905Z,1.20
2022-07-29T10:15:25.914Z,1.10
2022-07-29T10:16:25.932Z,1.30
2022-07-29T10:17:25.912Z,1.20
2022-07-29T10:18:25.908Z,1.40
2022-07-29T10:19:25.912Z,1.20
2022-07-29T10:20:25.910Z,1.40
2022-07-29T10:21:35.365Z,1.40
2022-07-29T10:22:51.409Z,1.30
2022-07-29T10:23:25.918Z,1.30
2022-07-29T10:24:25.920Z,1.30
2022-07-29T10:25:25.919Z,1.30
2022-07-29T10:26:25.919Z,1.40
2022-07-29T10:27:25.921Z,1.40
2022-07-29T10:28:25.924Z,1.40
2022-07-29T10:29:25.924Z,1.30
2022-07-29T10:30:25.922Z,1.30
2022-07-29T10:31:26.023Z,1.20
2022-07-29T10:32:25.928Z,1.20
2022-07-29T10:33:25.929Z,1.40
2022-07-29T10:34:25.929Z,1.40
2022-07-29T10:35:25.928Z,1.30
2022-07-29T10:36:25.934Z,1.30
2022-07-29T10:37:25.928Z,1.40
2022-07-29T10:38:25.935Z,1.40
2022-07-29T10:39:25.935Z,1.40
2022-07-29T11:33:16.948Z,1.30
2022-07-29T11:34:05.616Z,1.20
2022-07-29T11:39:41.948Z,1.20
2022-07-29T11:43:56.575Z,1.40
2022-07-29T11:44:49.209Z,1.40
2022-07-29T11:56:21.102Z,1.30
2022-07-29T11:57:06.022Z,1.60
2022-07-29T11:58:58.923Z,1.60
2022-07-29T12:00:04.774Z,1.50
2022-07-29T12:04:13.957Z,1.40
2022-07-29T12:05:14.523Z,1.30
2022-07-29T12:07:18.202Z,1.40
2022-07-29T12:08:17.940Z,1.40
2022-07-29T12:09:17.939Z,1.50
2022-07-29T12:10:19.766Z,1.40
2022-07-29T12:11:17.940Z,1.50
2022-07-29T12:12:17.942Z,1.50
2022-07-29T12:13:17.942Z,1.50
2022-07-29T12:25:44.286Z,1.60
2022-07-29T12:26:44.279Z,1.40
2022-07-29T12:28:48.279Z,1.70
2022-07-29T12:29:48.911Z,1.70
2022-07-29T12:31:44.011Z,1.50
2022-07-29T12:32:41.395Z,1.50
2022-07-29T12:33:41.397Z,1.50
2022-07-29T12:34:41.408Z,1.70
2022-07-29T12:35:41.400Z,1.60
2022-07-29T12:36:41.405Z,1.50
2022-07-29T12:37:42.597Z,1.70
2022-07-29T12:38:41.413Z,1.60
2022-07-29T12:39:41.410Z,1.70
2022-07-29T12:40:41.405Z,1.80
2022-07-29T12:41:41.407Z,1.60
2022-07-29T12:42:41.412Z,1.60
2022-07-29T12:43:41.414Z,1.90
2022-07-29T12:44:41.417Z,1.80
2022-07-29T12:45:41.419Z,1.80
2022-07-29T12:46:41.597Z,1.70
2022-07-29T12:47:41.421Z,1.80
2022-07-29T12:48:41.516Z,1.70
2022-07-29T12:49:41.436Z,1.80
2022-07-29T12:50:41.429Z,1.80
2022-07-29T12:51:41.431Z,2.00
2022-07-29T12:52:41.431Z,1.90
2022-07-29T12:53:41.433Z,1.90
2022-07-29T12:54:41.437Z,1.90
2022-07-29T12:55:41.444Z,1.90
2022-07-29T12:56:43.263Z,1.90
2022-07-29T12:57:41.442Z,1.80
2022-07-29T12:58:41.444Z,1.80
2022-07-29T12:59:41.452Z,1.90
2022-07-29T13:00:41.464Z,1.90
2022-07-29T13:01:41.449Z,1.70
2022-07-29T13:02:41.518Z,2.00
2022-07-29T13:03:41.451Z,1.70
2022-07-29T13:04:41.455Z,1.80
2022-07-29T13:05:43.619Z,1.80
2022-07-29T13:06:41.461Z,1.90
2022-07-29T13:07:55.389Z,2.00
2022-07-29T13:08:41.467Z,1.70
2022-07-29T13:09:41.466Z,1.90
2022-07-29T13:10:41.467Z,2.00
2022-07-29T13:11:45.278Z,1.90
2022-07-29T13:12:41.470Z,1.90
2022-07-29T13:13:41.474Z,1.90
2022-07-29T13:14:41.476Z,2.00
2022-07-29T13:15:41.475Z,1.70
2022-07-29T13:16:41.530Z,2.00
2022-07-29T13:17:41.480Z,1.90
2022-07-29T13:18:41.481Z,1.80
2022-07-29T13:19:41.509Z,1.90
2022-07-29T13:20:41.486Z,1.80
2022-07-29T13:21:41.485Z,1.90
2022-07-29T13:22:41.490Z,2.00
2022-07-29T13:23:41.496Z,1.80
2022-07-29T13:24:41.495Z,2.00
2022-07-29T13:25:41.496Z,1.80
2022-07-29T13:26:41.498Z,2.10
2022-07-29T13:27:41.499Z,1.80
2022-07-29T13:28:44.159Z,1.90
2022-07-29T13:29:41.504Z,2.00
2022-07-29T13:30:44.542Z,1.90
2022-07-29T13:31:41.509Z,1.80
2022-07-29T13:32:41.512Z,1.90
2022-07-29T13:33:41.513Z,1.90
2022-07-29T13:34:41.518Z,1.80
2022-07-29T13:35:41.521Z,1.90
2022-07-29T13:36:41.800Z,1.90
2022-07-29T13:37:41.524Z,1.90
2022-07-29T13:38:41.523Z,2.00
2022-07-29T13:39:41.527Z,1.90
2022-07-29T13:40:41.531Z,2.10
2022-07-29T13:41:41.528Z,2.00
2022-07-29T13:42:41.533Z,1.90
2022-07-29T13:43:41.532Z,1.60
2022-07-29T13:44:41.538Z,2.00
2022-07-29T13:45:41.564Z,2.00
2022-07-29T13:46:41.543Z,2.00
2022-07-29T13:47:44.787Z,2.00
2022-07-29T13:48:41.584Z,1.90
2022-07-29T13:49:41.550Z,1.90
2022-07-29T13:50:41.553Z,1.70
2022-07-29T13:51:41.551Z,1.90
2022-07-29T13:52:41.558Z,1.90
2022-07-29T13:53:41.550Z,2.00
2022-07-29T13:54:42.573Z,2.10
2022-07-29T13:55:41.560Z,2.00
2022-07-29T13:56:41.562Z,1.90
2022-07-29T13:57:41.565Z,1.90
2022-07-29T13:58:41.566Z,1.90
2022-07-29T13:59:41.567Z,1.80
2022-07-29T14:00:41.579Z,1.80
2022-07-29T14:01:41.603Z,2.10
2022-07-29T14:02:41.575Z,1.80
2022-07-29T14:03:41.574Z,2.00
2022-07-29T14:04:41.632Z,1.80
2022-07-29T14:05:41.582Z,1.90
2022-07-29T14:06:41.585Z,1.90
2022-07-29T14:07:41.591Z,1.90
2022-07-29T14:08:41.590Z,1.80
2022-07-29T14:09:41.890Z,2.00
2022-07-29T14:10:41.592Z,2.00
2022-07-29T14:11:41.597Z,2.00
2022-07-29T14:12:41.596Z,2.10
2022-07-29T14:13:41.598Z,1.90
2022-07-29T14:14:41.602Z,2.00
2022-07-29T14:15:41.603Z,2.10
2022-07-29T14:16:47.611Z,1.90
2022-07-29T14:17:41.611Z,1.90
2022-07-29T14:18:41.612Z,1.80
2022-07-29T14:19:41.612Z,2.10
2022-07-29T14:20:41.616Z,1.90
2022-07-29T14:21:41.639Z,2.00
2022-07-29T14:22:42.684Z,2.10
2022-07-29T14:23:42.361Z,2.00
2022-07-29T14:24:41.626Z,2.10
2022-07-29T14:25:41.624Z,2.00
2022-07-29T14:26:41.630Z,1.90
2022-07-29T14:27:41.637Z,2.00
2022-07-29T14:28:42.108Z,2.00
2022-07-29T14:29:41.636Z,2.20
2022-07-29T14:30:41.641Z,2.00
2022-07-29T14:31:41.700Z,2.10
2022-07-29T14:32:41.648Z,2.10
2022-07-29T14:33:41.653Z,2.10
2022-07-29T14:34:41.659Z,2.30
2022-07-29T14:35:41.661Z,1.90
2022-07-29T14:36:41.656Z,1.90
2022-07-29T14:37:41.658Z,2.10
2022-07-29T14:38:41.661Z,2.00
2022-07-29T14:39:43.197Z,2.00
2022-07-29T14:40:41.673Z,2.00
2022-07-29T14:41:41.671Z,2.10
2022-07-29T14:42:41.679Z,2.00
2022-07-29T14:43:41.676Z,1.90
2022-07-29T14:44:41.682Z,2.10
2022-07-29T14:45:41.717Z,1.90
2022-07-29T14:46:41.686Z,2.00
2022-07-29T14:47:41.691Z,2.10
2022-07-29T14:48:41.736Z,2.00
2022-07-29T14:49:41.691Z,1.90
2022-07-29T14:50:41.695Z,2.10
2022-07-29T14:51:41.698Z,2.00
2022-07-29T14:52:41.701Z,2.00
2022-07-29T14:53:41.705Z,2.10
2022-07-29T14:54:41.711Z,2.10
2022-07-29T14:55:41.712Z,2.10
2022-07-29T14:56:46.791Z,2.10